Time;durP1;ratioP1;P1;durP2;ratioP2;P2;SDS_P1;SDS_P2;PMS_P1;PMS_P2;Temp;Humidity;BMP_temperature;BMP_pressure;BME280_temperature;BME280_humidity;BME280_pressure;Samples;Min_cycle;Max_cycle;Signal;HPM_P1;HPM_P2
2023/03/11 11:22:05;;;;;;;3.37;2.40;;;;;;;9.03;33.74;99115.09;12888850;22;1366976;-37
2023/03/11 11:27:22;;;;;;;5.47;2.87;;;;;;;8.31;34.43;99142.56;12799800;23;20207;-37
2023/03/11 11:32:25;;;;;;;4.60;3.00;;;;;;;6.65;35.70;99178.63;12798764;23;20188;-36
2023/03/11 11:37:33;;;;;;;4.83;2.97;;;;;;;7.58;34.28;99144.94;12799008;23;20204;-37
2023/03/11 11:42:37;;;;;;;4.00;2.90;;;;;;;8.26;33.13;99181.25;12792498;23;20206;-37
2023/03/11 11:47:45;;;;;;;4.40;2.60;;;;;;;8.92;32.31;99099.59;12796286;23;20215;-38
2023/03/11 11:52:54;;;;;;;4.67;2.77;;;;;;;9.04;33.12;99079.38;12795778;23;20271;-38
2023/03/11 11:57:56;;;;;;;2.97;2.67;;;;;;;7.58;33.49;99235.47;12798699;23;20538;-38
2023/03/11 12:03:07;;;;;;;3.70;2.70;;;;;;;9.35;31.68;99107.59;12798916;23;20512;-39
2023/03/11 12:08:26;;;;;;;4.10;2.87;;;;;;;5.87;34.03;99207.59;12800333;23;20184;-39
2023/03/11 12:13:48;;;;;;;3.43;2.77;;;;;;;8.72;33.23;99038.00;12798929;23;20206;-37
2023/03/11 12:19:15;;;;;;;6.10;2.50;;;;;;;9.38;32.32;99032.41;12786458;23;20271;-37
2023/03/11 12:24:29;;;;;;;3.47;2.53;;;;;;;8.42;33.05;99078.94;12826765;23;20212;-39
2023/03/11 12:29:42;;;;;;;3.83;2.63;;;;;;;9.35;32.58;99084.38;12848353;23;20695;-38
2023/03/11 12:34:44;;;;;;;3.13;2.33;;;;;;;8.08;33.30;99082.19;12846210;23;20220;-37
2023/03/11 12:39:48;;;;;;;3.43;2.90;;;;;;;8.39;31.80;99139.81;12847164;23;20558;-37
2023/03/11 12:44:50;;;;;;;3.00;2.37;;;;;;;8.92;31.87;99142.28;12846617;23;20225;-37
2023/03/11 12:49:54;;;;;;;3.73;2.40;;;;;;;8.52;32.98;99065.28;12848302;23;20246;-37
2023/03/11 12:54:59;;;;;;;5.17;2.63;;;;;;;9.03;31.37;99136.44;12846328;23;20222;-37
2023/03/11 13:00:26;;;;;;;4.83;2.20;;;;;;;6.60;34.03;99171.22;12847660;23;20299;-37
2023/03/11 13:05:49;;;;;;;4.53;2.90;;;;;;;8.51;32.10;99065.50;12846254;23;20351;-38
2023/03/11 13:10:53;;;;;;;4.37;2.23;;;;;;;8.84;32.94;99085.34;12847230;23;20251;-39
2023/03/11 13:15:56;;;;;;;2.90;2.60;;;;;;;9.07;32.70;99083.53;12901609;23;20214;-39
2023/03/11 13:21:00;;;;;;;3.60;2.60;;;;;;;9.03;32.54;99065.22;12908881;22;20248;-37
2023/03/11 13:26:35;;;;;;;3.33;3.03;;;;;;;8.21;33.42;99081.53;12909027;22;20247;-38
2023/03/11 13:31:39;;;;;;;4.53;2.67;;;;;;;9.39;32.98;99087.47;12906263;23;20626;-39
2023/03/11 13:37:03;;;;;;;2.97;2.30;;;;;;;9.29;32.46;99076.31;12910302;23;20203;-37
2023/03/11 13:42:18;;;;;;;4.73;2.70;;;;;;;9.19;34.23;99031.25;12907907;22;20188;-37
2023/03/11 13:47:22;;;;;;;14.90;3.93;;;;;;;10.39;32.81;99050.63;12908937;22;20279;-38
2023/03/11 13:52:37;;;;;;;2.97;2.40;;;;;;;8.39;34.17;99071.31;12910081;22;20329;-37
2023/03/11 13:57:38;;;;;;;6.87;2.43;;;;;;;10.84;32.76;98986.72;12909367;22;20207;-38
2023/03/11 14:02:49;;;;;;;2.33;2.13;;;;;;;7.95;32.80;99129.97;12909209;22;20278;-38
2023/03/11 14:07:52;;;;;;;3.27;2.80;;;;;;;7.88;32.90;99061.44;12907446;22;20207;-37
2023/03/11 14:13:05;;;;;;;3.27;2.77;;;;;;;8.11;34.02;99061.31;12907901;22;20653;-36
2023/03/11 14:18:39;;;;;;;4.27;2.53;;;;;;;8.40;32.96;99099.59;12909560;22;20187;-36
2023/03/11 14:23:45;;;;;;;6.03;2.77;;;;;;;9.70;32.47;99000.75;12906856;22;20226;-36
2023/03/11 14:28:50;;;;;;;4.03;2.60;;;;;;;11.37;30.99;99001.09;12910092;22;20663;-36
2023/03/11 14:34:08;;;;;;;3.20;2.80;;;;;;;11.19;30.60;98983.03;12910592;22;20196;-35
2023/03/11 14:39:32;;;;;;;4.57;2.87;;;;;;;9.93;32.56;99102.06;12908046;22;20218;-36
2023/03/11 14:44:39;;;;;;;3.87;2.50;;;;;;;10.73;31.81;99067.63;12908011;22;20225;-36
2023/03/11 14:49:41;;;;;;;5.77;2.90;;;;;;;12.61;30.49;98967.00;12907839;22;20218;-36
2023/03/11 14:54:44;;;;;;;3.87;2.97;;;;;;;9.08;32.29;99195.44;12907080;23;20218;-36
2023/03/11 14:59:49;;;;;;;4.50;2.60;;;;;;;8.29;33.47;99113.44;12907573;22;20300;-36
2023/03/11 15:04:53;;;;;;;4.33;2.53;;;;;;;11.26;31.37;99007.94;12908767;22;20751;-36
2023/03/11 15:09:55;;;;;;;5.00;2.60;;;;;;;8.67;32.71;99127.44;12909244;22;20223;-36
2023/03/11 15:14:57;;;;;;;3.67;3.37;;;;;;;10.80;31.15;99119.31;12907774;22;20322;-36
2023/03/11 15:19:59;;;;;;;3.47;2.63;;;;;;;10.48;31.37;99094.09;12908549;22;20284;-36
2023/03/11 15:25:04;;;;;;;4.50;3.10;;;;;;;11.55;31.83;99056.72;12906811;22;20765;-36
2023/03/11 15:30:27;;;;;;;3.27;2.97;;;;;;;10.01;31.22;99023.56;12907740;22;20357;-35
2023/03/11 15:35:29;;;;;;;4.73;3.47;;;;;;;8.81;32.66;99090.22;12907734;22;20237;-36
2023/03/11 15:40:33;;;;;;;5.03;3.63;;;;;;;11.13;31.09;99024.00;12909171;22;20219;-36
2023/03/11 15:45:47;;;;;;;3.40;2.97;;;;;;;10.91;31.87;99002.78;12907121;22;20218;-36
2023/03/11 15:50:59;;;;;;;4.03;3.37;;;;;;;10.63;31.65;99011.81;12909696;22;20310;-37
2023/03/11 15:56:09;;;;;;;4.53;3.00;;;;;;;11.88;31.21;98957.50;12909795;22;20222;-35
2023/03/11 16:01:11;;;;;;;5.53;2.90;;;;;;;9.25;31.42;99157.78;12909446;22;20222;-37
2023/03/11 16:06:13;;;;;;;3.57;2.70;;;;;;;10.67;30.67;99103.19;12909886;22;20215;-36
2023/03/11 16:11:15;;;;;;;2.50;2.30;;;;;;;10.24;31.17;99016.03;12891541;22;20215;-35
2023/03/11 16:16:17;;;;;;;17.70;5.27;;;;;;;9.16;31.96;99155.28;12858795;22;20223;-37
2023/03/11 16:21:23;;;;;;;5.27;3.10;;;;;;;9.65;32.10;99003.19;12909088;23;20720;-36
2023/03/11 16:26:24;;;;;;;5.30;4.00;;;;;;;11.78;30.96;98957.13;11791481;22;10000243;-36
2023/03/11 16:31:27;;;;;;;7.87;3.90;;;;;;;10.60;32.17;99022.91;12812845;23;20188;-35
2023/03/11 16:36:28;;;;;;;6.07;3.40;;;;;;;9.76;31.88;99099.66;12781033;23;20254;-36
2023/03/11 16:41:41;;;;;;;7.17;2.70;;;;;;;10.78;31.62;99083.91;12781971;23;20170;-36
2023/03/11 16:46:42;;;;;;;6.10;4.03;;;;;;;11.66;30.40;99087.44;12782523;23;20304;-36
2023/03/11 16:51:44;;;;;;;19.13;9.17;;;;;;;10.80;31.09;99095.22;12782472;23;20189;-35
2023/03/11 16:56:46;;;;;;;7.20;3.07;;;;;;;12.05;29.96;99034.78;12783661;23;20219;-36
2023/03/11 17:01:48;;;;;;;7.90;3.43;;;;;;;13.27;28.98;99109.88;12784454;23;20703;-36
2023/03/11 17:06:49;;;;;;;3.70;2.87;;;;;;;13.64;28.95;99072.38;12786380;23;20267;-36
2023/03/11 17:11:52;;;;;;;3.33;3.00;;;;;;;12.28;29.45;99184.47;12780886;23;20201;-36
2023/03/11 17:16:54;;;;;;;3.50;3.07;;;;;;;14.00;29.04;99076.97;12782368;23;20220;-36
2023/03/11 17:21:56;;;;;;;4.57;2.93;;;;;;;13.48;28.98;99135.59;12779659;23;20226;-36
2023/03/11 17:26:58;;;;;;;4.20;2.87;;;;;;;8.75;33.42;99225.16;12780869;23;20298;-36
2023/03/11 17:32:00;;;;;;;4.80;3.23;;;;;;;8.70;35.39;99157.41;12783366;23;20297;-36
2023/03/11 17:37:02;;;;;;;4.73;3.13;;;;;;;7.02;35.96;99214.38;12784258;23;20847;-36
2023/03/11 17:42:04;;;;;;;4.93;3.00;;;;;;;7.27;36.76;99096.13;12783780;23;20251;-36
2023/03/11 17:47:06;;;;;;;4.57;2.97;;;;;;;7.63;36.00;99102.63;12783285;23;20243;-34
2023/03/11 17:52:08;;;;;;;4.70;2.90;;;;;;;8.20;35.10;99067.41;12783156;23;20680;-34
2023/03/11 17:57:10;;;;;;;4.53;3.10;;;;;;;8.57;34.79;99073.56;12781406;23;20699;-34
2023/03/11 18:02:12;;;;;;;3.10;2.80;;;;;;;8.63;34.28;99136.81;12782721;23;20274;-34
2023/03/11 18:07:14;;;;;;;4.07;2.87;;;;;;;9.10;34.82;99017.22;12781722;23;20275;-34
2023/03/11 18:12:16;;;;;;;4.63;2.80;;;;;;;8.69;34.99;99060.56;12782203;23;20216;-35
2023/03/11 18:17:19;;;;;;;4.73;2.93;;;;;;;8.20;34.46;99142.03;12783168;23;20563;-34
2023/03/11 18:22:21;;;;;;;5.43;3.10;;;;;;;9.42;33.92;99048.91;12829727;23;20224;-34
2023/03/11 18:27:23;;;;;;;6.07;4.23;;;;;;;9.83;33.16;99059.66;12783846;23;20221;-35
2023/03/11 18:32:25;;;;;;;4.63;3.73;;;;;;;8.78;33.65;99158.13;12781879;23;20292;-34
2023/03/11 18:37:27;;;;;;;6.67;3.87;;;;;;;8.20;34.45;99134.03;12783727;23;20279;-34
2023/03/11 18:42:28;;;;;;;5.43;4.37;;;;;;;8.78;33.61;99143.97;12781673;23;20247;-34
2023/03/11 18:47:34;;;;;;;5.40;4.80;;;;;;;9.68;32.97;99085.63;12782369;23;20692;-34
2023/03/11 18:52:36;;;;;;;6.97;4.50;;;;;;;10.07;32.89;99124.34;12781913;23;20244;-34
2023/03/11 18:57:40;;;;;;;5.07;3.60;;;;;;;8.35;34.46;99159.84;12780549;23;20228;-34
2023/03/11 19:02:42;;;;;;;3.13;2.83;;;;;;;8.15;34.96;99122.25;12781723;23;20216;-34
2023/03/11 19:07:44;;;;;;;3.43;3.13;;;;;;;7.02;35.56;99239.19;12782370;23;20927;-34
2023/03/11 19:12:46;;;;;;;5.33;4.00;;;;;;;8.34;34.42;99166.19;12781719;23;20230;-34
2023/03/11 19:17:48;;;;;;;5.30;3.00;;;;;;;8.85;33.96;99153.66;12781305;23;20225;-34
2023/03/11 19:23:06;;;;;;;5.43;2.90;;;;;;;8.84;33.70;99157.38;12781223;23;20592;-35
2023/03/11 19:28:08;;;;;;;7.50;3.10;;;;;;;9.73;32.76;99166.84;12786332;23;20308;-34
2023/03/11 19:33:10;;;;;;;5.00;3.40;;;;;;;8.73;33.36;99191.72;12784810;23;20212;-34
2023/03/11 19:38:11;;;;;;;3.60;3.30;;;;;;;8.36;34.08;99193.50;12786166;23;20324;-36
2023/03/11 19:43:13;;;;;;;9.27;5.43;;;;;;;8.54;33.98;99159.28;12833050;23;20320;-34
2023/03/11 19:48:15;;;;;;;4.70;3.73;;;;;;;6.71;35.68;99247.91;12785632;23;20859;-34
2023/03/11 19:53:17;;;;;;;8.80;5.40;;;;;;;7.28;35.12;99190.94;12786484;23;20219;-37
2023/03/11 19:58:20;;;;;;;7.77;5.37;;;;;;;8.95;33.85;99131.25;12785871;23;20813;-34
2023/03/11 20:03:23;;;;;;;7.47;3.50;;;;;;;8.83;33.63;99137.03;12785965;23;20216;-36
2023/03/11 20:08:25;;;;;;;7.47;3.43;;;;;;;8.43;33.57;99221.88;12784976;23;20295;-36
2023/03/11 20:13:27;;;;;;;4.37;3.83;;;;;;;6.90;34.73;99293.75;12786117;23;20569;-38
2023/03/11 20:18:29;;;;;;;4.73;3.63;;;;;;;9.62;32.94;99116.63;12785450;23;20212;-35
2023/03/11 20:23:31;;;;;;;5.90;4.10;;;;;;;8.40;32.88;99272.09;12783644;23;20841;-37
2023/03/11 20:28:33;;;;;;;6.33;3.77;;;;;;;9.06;33.09;99146.72;12785379;23;20247;-36
2023/03/11 20:33:36;;;;;;;8.07;5.37;;;;;;;8.82;32.88;99215.41;12783539;23;20239;-37
2023/03/11 20:38:38;;;;;;;6.17;3.70;;;;;;;8.58;33.33;99221.06;12784256;23;20239;-37
2023/03/11 20:43:41;;;;;;;5.83;3.53;;;;;;;7.49;35.18;99213.41;12783059;23;20295;-39
2023/03/11 20:48:42;;;;;;;5.27;4.23;;;;;;;6.79;36.11;99279.81;12785051;23;20223;-36
2023/03/11 20:53:45;;;;;;;4.17;3.67;;;;;;;6.06;36.10;99316.16;12784154;23;20227;-36
2023/03/11 20:58:49;;;;;;;7.80;4.87;;;;;;;6.25;36.32;99243.22;12783539;23;20213;-36
2023/03/11 21:03:54;;;;;;;4.83;4.33;;;;;;;7.42;35.68;99136.09;12783871;23;20212;-36
2023/03/11 21:08:57;;;;;;;6.53;4.50;;;;;;;6.86;36.18;99210.81;12833274;23;20223;-35
2023/03/11 21:13:59;;;;;;;5.40;4.07;;;;;;;6.91;36.23;99179.19;12783271;23;20216;-37
2023/03/11 21:19:04;;;;;;;6.43;4.70;;;;;;;6.81;35.61;99231.78;12783491;23;20219;-36
2023/03/11 21:24:06;;;;;;;6.90;4.40;;;;;;;8.01;35.27;99102.59;12783291;23;20224;-36
2023/03/11 21:29:08;;;;;;;6.50;4.43;;;;;;;6.50;36.11;99237.00;12833354;23;20281;-34
2023/03/11 21:34:10;;;;;;;7.97;4.97;;;;;;;6.63;35.83;99222.19;12782769;23;20204;-36
2023/03/11 21:39:14;;;;;;;6.30;4.87;;;;;;;6.05;36.49;99287.09;12784528;23;20454;-36
2023/03/11 21:44:16;;;;;;;7.93;4.20;;;;;;;7.28;35.52;99180.28;12773533;23;20211;-36
2023/03/11 21:49:18;;;;;;;8.87;5.37;;;;;;;6.33;36.48;99268.97;12782877;23;20217;-36
2023/03/11 21:54:20;;;;;;;7.30;5.70;;;;;;;6.16;36.88;99238.94;12783798;23;20200;-36
2023/03/11 21:59:21;;;;;;;7.43;4.97;;;;;;;6.84;36.37;99153.50;12783825;23;20223;-35
2023/03/11 22:04:26;;;;;;;8.93;6.20;;;;;;;6.13;37.19;99257.06;12782658;23;20614;-36
2023/03/11 22:09:27;;;;;;;6.90;5.40;;;;;;;5.87;38.34;99221.72;12783218;23;20727;-33
2023/03/11 22:14:29;;;;;;;9.67;6.23;;;;;;;5.73;38.95;99182.56;12783502;23;20842;-36
2023/03/11 22:19:31;;;;;;;6.60;5.07;;;;;;;5.10;39.10;99239.69;12783679;23;20536;-35
2023/03/11 22:24:33;;;;;;;10.13;5.00;;;;;;;4.47;40.15;99244.41;12782173;23;20537;-35
2023/03/11 22:29:35;;;;;;;7.67;5.80;;;;;;;4.25;40.71;99207.84;12832420;23;20283;-34
2023/03/11 22:34:36;;;;;;;9.13;5.83;;;;;;;3.89;41.08;99214.06;12782259;23;20287;-35
2023/03/11 22:39:38;;;;;;;10.00;6.07;;;;;;;4.84;40.63;99072.75;12782606;23;20206;-36
2023/03/11 22:44:40;;;;;;;7.43;4.80;;;;;;;4.58;40.05;99140.78;12782271;23;20204;-37
2023/03/11 22:49:41;;;;;;;7.33;4.70;;;;;;;5.32;39.30;99108.25;12782803;23;20592;-36
2023/03/11 22:54:43;;;;;;;7.00;5.03;;;;;;;5.39;38.80;99121.69;12783073;23;20286;-36
2023/03/11 22:59:45;;;;;;;8.13;4.70;;;;;;;4.11;39.97;99238.38;12781580;23;20183;-36
2023/03/11 23:04:46;;;;;;;6.90;4.80;;;;;;;4.14;40.12;99195.72;12783411;23;20222;-36
2023/03/11 23:09:48;;;;;;;10.30;5.60;;;;;;;3.98;40.49;99228.19;12782216;23;20187;-37
2023/03/11 23:14:50;;;;;;;9.53;5.33;;;;;;;4.65;39.72;99148.91;12755905;23;20687;-35
2023/03/11 23:19:52;;;;;;;6.10;5.50;;;;;;;5.92;38.41;99056.53;12820443;23;20195;-35
2023/03/11 23:24:54;;;;;;;7.27;4.60;;;;;;;5.30;38.75;99139.41;12781513;23;20688;-38
2023/03/11 23:29:55;;;;;;;5.97;4.90;;;;;;;4.97;39.29;99162.44;12782068;23;20663;-36
2023/03/11 23:34:57;;;;;;;8.93;5.53;;;;;;;6.11;37.41;99156.28;12759576;23;20267;-36
2023/03/11 23:39:58;;;;;;;5.10;4.57;;;;;;;5.10;38.86;99139.75;12817144;23;20274;-36
2023/03/11 23:45:01;;;;;;;6.50;5.00;;;;;;;5.55;37.75;99188.00;12759536;23;20252;-36
2023/03/11 23:50:03;;;;;;;7.20;4.23;;;;;;;5.84;37.79;99118.50;12816010;23;20187;-46
2023/03/11 23:55:05;;;;;;;7.23;5.30;;;;;;;5.74;37.91;99151.50;12782380;23;20209;-45
